METAR Data
IDs: Format: Raw Decoded Include TAF

Data at: 1244 UTC 23 Mar 2019

METAR for:PADQ (Kodiak Arpt, AK, US)
Text:PADQ 231221Z AUTO 00000KT 10SM BKN012 OVC060 02/02 A2952 RMK AO2 T00220017 TSNO
Temperature: 2.2°C ( 36°F)
Dewpoint: 1.7°C ( 35°F) [RH = 96%]
Pressure (altimeter):29.52 inches Hg ( 999.7 mb)
Winds:calm
Visibility:10 or more sm (16+ km)
Ceiling:1200 feet AGL
Clouds: broken clouds at 1200 feet AGL, overcast cloud deck at 6000 feet AGL
QC Flag:automated observation with no human augmentation
Text:PADQ 231153Z AUTO 00000KT 10SM OVC060 02/02 A2951 RMK AO2 SLP994 60000 70006 T00220017 10056 20011 51021 TSNO
Temperature: 2.2°C ( 36°F)
Dewpoint: 1.7°C ( 35°F) [RH = 96%]
Pressure (altimeter):29.51 inches Hg ( 999.4 mb) [Sea level pressure: 999.4 mb]
Winds:calm
Visibility:10 or more sm (16+ km)
Ceiling:6000 feet AGL
Clouds: overcast cloud deck at 6000 feet AGL
QC Flag:automated observation with no human augmentation
Text:PADQ 231053Z AUTO 28004KT 8SM BKN060 02/01 A2949 RMK AO2 SLP988 T00170011 TSNO
Temperature: 1.7°C ( 35°F)
Dewpoint: 1.1°C ( 34°F) [RH = 96%]
Pressure (altimeter):29.49 inches Hg ( 998.7 mb) [Sea level pressure: 998.8 mb]
Winds:from the W (280 degrees) at 5 MPH (4 knots; 2.1 m/s)
Visibility: 8 sm ( 13 km)
Ceiling:6000 feet AGL
Clouds: broken clouds at 6000 feet AGL
QC Flag:automated observation with no human augmentation
Text:PADQ 230953Z AUTO 12005KT 9SM FEW025 BKN070 04/02 A2947 RMK AO2 SLP982 T00390022 TSNO
Temperature: 3.9°C ( 39°F)
Dewpoint: 2.2°C ( 36°F) [RH = 89%]
Pressure (altimeter):29.47 inches Hg ( 998.1 mb) [Sea level pressure: 998.2 mb]
Winds:from the ESE (120 degrees) at 6 MPH (5 knots; 2.6 m/s)
Visibility: 9 sm ( 14 km)
Ceiling:7000 feet AGL
Clouds: few clouds at 2500 feet AGL, broken clouds at 7000 feet AGL
QC Flag:automated observation with no human augmentation
Text:PADQ 230853Z AUTO 13007KT 9SM CLR 04/03 A2945 RMK AO2 SLP974 60000 T00440028 400720044 51011 TSNO
Temperature: 4.4°C ( 40°F)
Dewpoint: 2.8°C ( 37°F) [RH = 89%]
Pressure (altimeter):29.45 inches Hg ( 997.4 mb) [Sea level pressure: 997.4 mb]
Winds:from the SE (130 degrees) at 8 MPH (7 knots; 3.6 m/s)
Visibility: 9 sm ( 14 km)
Ceiling:at least 12,000 feet AGL
Clouds:sky clear below 12,000 feet AGL
QC Flag:automated observation with no human augmentation
Text:PADQ 230803Z AUTO 11012KT 8SM FEW031 BKN048 05/03 A2944 RMK AO2 T00500033 TSNO
Temperature: 5.0°C ( 41°F)
Dewpoint: 3.3°C ( 38°F) [RH = 89%]
Pressure (altimeter):29.44 inches Hg ( 997.0 mb)
Winds:from the ESE (110 degrees) at 14 MPH (12 knots; 6.2 m/s)
Visibility: 8 sm ( 13 km)
Ceiling:4800 feet AGL
Clouds: few clouds at 3100 feet AGL, broken clouds at 4800 feet AGL
QC Flag:automated observation with no human augmentation
Text:PADQ 230753Z AUTO 10009KT 9SM BKN029 OVC048 05/04 A2944 RMK AO2 RAB13E23 SLP969 P0000 T00500039 TSNO
Temperature: 5.0°C ( 41°F)
Dewpoint: 3.9°C ( 39°F) [RH = 93%]
Pressure (altimeter):29.44 inches Hg ( 997.0 mb) [Sea level pressure: 996.9 mb]
Winds:from the E (100 degrees) at 10 MPH (9 knots; 4.6 m/s)
Visibility: 9 sm ( 14 km)
Ceiling:2900 feet AGL
Clouds: broken clouds at 2900 feet AGL, overcast cloud deck at 4800 feet AGL
QC Flag:automated observation with no human augmentation
Text:PADQ 230750Z AUTO 11010KT 9SM SCT029 SCT034 OVC048 05/04 A2944 RMK AO2 RAB13E23 P0000 TSNO
Temperature: 5.0°C ( 41°F)
Dewpoint: 4.0°C ( 39°F) [RH = 93%]
Pressure (altimeter):29.44 inches Hg ( 997.0 mb)
Winds:from the ESE (110 degrees) at 12 MPH (10 knots; 5.1 m/s)
Visibility: 9 sm ( 14 km)
Ceiling:4800 feet AGL
Clouds: scattered clouds at 2900 feet AGL, scattered clouds at 3400 feet AGL, overcast cloud deck at 4800 feet AGL
QC Flag:automated observation with no human augmentation
Text:PADQ 230705Z AUTO 10011KT 10SM SCT015 BKN028 OVC037 05/03 A2942 RMK AO2 T00500033 TSNO
Temperature: 5.0°C ( 41°F)
Dewpoint: 3.3°C ( 38°F) [RH = 89%]
Pressure (altimeter):29.42 inches Hg ( 996.4 mb)
Winds:from the E (100 degrees) at 13 MPH (11 knots; 5.7 m/s)
Visibility:10 or more sm (16+ km)
Ceiling:2800 feet AGL
Clouds: scattered clouds at 1500 feet AGL, broken clouds at 2800 feet AGL, overcast cloud deck at 3700 feet AGL
QC Flag:automated observation with no human augmentation
Text:PADQ 230653Z AUTO 09013KT 10SM SCT026 BKN033 OVC040 05/03 A2942 RMK AO2 SLP963 T00500028 TSNO
Temperature: 5.0°C ( 41°F)
Dewpoint: 2.8°C ( 37°F) [RH = 86%]
Pressure (altimeter):29.42 inches Hg ( 996.4 mb) [Sea level pressure: 996.3 mb]
Winds:from the E (90 degrees) at 15 MPH (13 knots; 6.7 m/s)
Visibility:10 or more sm (16+ km)
Ceiling:3300 feet AGL
Clouds: scattered clouds at 2600 feet AGL, broken clouds at 3300 feet AGL, overcast cloud deck at 4000 feet AGL
QC Flag:automated observation with no human augmentation
Text:PADQ 230650Z AUTO 09012KT 10SM SCT026 BKN035 BKN042 05/03 A2942 RMK AO2 TSNO
Temperature: 5.0°C ( 41°F)
Dewpoint: 3.0°C ( 37°F) [RH = 87%]
Pressure (altimeter):29.42 inches Hg ( 996.4 mb)
Winds:from the E (90 degrees) at 14 MPH (12 knots; 6.2 m/s)
Visibility:10 or more sm (16+ km)
Ceiling:3500 feet AGL
Clouds: scattered clouds at 2600 feet AGL, broken clouds at 3500 feet AGL, broken clouds at 4200 feet AGL
QC Flag:automated observation with no human augmentation

TAF for:PADQ (Kodiak Arpt, AK, US) issued at 1241 UTC 23 Mar 2019
Text:PADQ 231241Z 2313/2412 28006KT P6SM BKN015 OVC050
Forecast period:1300 to 1600 UTC 23 March 2019
Forecast type:FROM: standard forecast or significant change
Winds:from the W (280 degrees) at 7 MPH (6 knots; 3.1 m/s)
Visibility:6 or more sm (10+ km)
Ceiling:1500 feet AGL
Clouds: broken clouds at 1500 feet AGL, overcast cloud deck at 5000 feet AGL
Text:TEMPO 2313/2316 SCT015 OVC050
Forecast period:1300 to 1600 UTC 23 March 2019
Forecast type:TEMPORARY: The following changes expected for less than half the time period
Ceiling:5000 feet AGL
Clouds: scattered clouds at 1500 feet AGL, overcast cloud deck at 5000 feet AGL
Text:FM231600 VRB05KT P6SM SCT035 SCT070
Forecast period:1600 UTC 23 March 2019 to 1200 UTC 24 March 2019
Forecast type:FROM: standard forecast or significant change
Winds:variable direction winds at 6 MPH (5 knots; 2.6 m/s)
Visibility:6 or more sm (10+ km)
Ceiling:at least 12,000 feet AGL
Clouds: scattered clouds at 3500 feet AGL, scattered clouds at 7000 feet AGL